Eastlake, Colorado
Current Conditions -  °F | °C
As of 4:55 PM on Friday 24 Oct 2014 (Local Time) from KEIK Reporting Station
Clear Clear  
Wind Chill: 27°   Ceiling: Unl
Heat Index: 27°   Visibility: 10mi
Dew Point: -8°   Wind: 3mph
Humidity: 10%   Direction: 130°SE
Pressure: 30.12"   Gusts: 16mph
Location:  39.92°N, 104.96°W
Report Text: KEIK 242255Z AUTO 13003G14KT 10SM CLR 27/M08 A3012 RMK AO2 T02701076
Loading
Personal Weather Stations






























Interactive Weather Map
Tropical Storm Tracking
New forecast layout! Learn more

10-Day Weather Forecast

Advertisements
Track Severe Weather on mobile